Time;durP1;ratioP1;P1;durP2;ratioP2;P2;SDS_P1;SDS_P2;PMS_P1;PMS_P2;Temp;Humidity;BMP_temperature;BMP_pressure;BME280_temperature;BME280_humidity;BME280_pressure;Samples;Min_cycle;Max_cycle;Signal;HPM_P1;HPM_P2
2023/12/01 00:01:44;;;;;;;42.95;19.67;;;;;;;-0.42;100.00;100335.88;5030756;28;20033;-70
2023/12/01 00:04:10;;;;;;;41.60;18.90;;;;;;;-0.41;100.00;100342.78;5030722;28;20040;-70
2023/12/01 00:06:36;;;;;;;44.58;21.83;;;;;;;-0.43;100.00;100346.50;5030690;28;20083;-70
2023/12/01 00:09:01;;;;;;;40.03;17.60;;;;;;;-0.45;100.00;100355.34;5030726;28;20159;-70
2023/12/01 00:11:26;;;;;;;46.80;19.42;;;;;;;-0.50;100.00;100356.69;5030672;28;20053;-70
2023/12/01 00:13:52;;;;;;;43.47;17.50;;;;;;;-0.51;100.00;100360.28;5030697;28;20028;-70
2023/12/01 00:16:17;;;;;;;43.97;20.08;;;;;;;-0.52;100.00;100356.84;5030434;28;20068;-70
2023/12/01 00:18:42;;;;;;;46.63;18.73;;;;;;;-0.50;100.00;100351.47;5030435;28;20029;-70
2023/12/01 00:21:08;;;;;;;43.00;18.65;;;;;;;-0.51;100.00;100362.91;5030305;28;20033;-70
2023/12/01 00:23:33;;;;;;;44.22;19.67;;;;;;;-0.55;100.00;100365.00;5030444;28;20040;-70
2023/12/01 00:25:58;;;;;;;50.28;22.48;;;;;;;-0.57;100.00;100360.84;5030183;28;20044;-70
2023/12/01 00:28:24;;;;;;;42.38;19.75;;;;;;;-0.58;100.00;100361.78;5030272;28;20037;-70
2023/12/01 00:30:49;;;;;;;49.03;20.45;;;;;;;-0.65;100.00;100348.44;5030268;28;20044;-70
2023/12/01 00:33:15;;;;;;;47.92;20.13;;;;;;;-0.58;100.00;100367.84;5030104;28;20025;-71
2023/12/01 00:35:40;;;;;;;44.05;19.42;;;;;;;-0.57;100.00;100358.22;5030037;28;20054;-70
2023/12/01 00:38:06;;;;;;;42.80;19.88;;;;;;;-0.59;100.00;100365.38;5030117;28;20033;-70
2023/12/01 00:40:31;;;;;;;43.47;19.95;;;;;;;-0.58;100.00;100367.84;5030198;28;20038;-70
2023/12/01 00:42:57;;;;;;;54.00;22.38;;;;;;;-0.59;100.00;100368.81;5029983;28;20120;-70
2023/12/01 00:45:22;;;;;;;43.28;19.35;;;;;;;-0.62;100.00;100365.66;5029966;28;20048;-70
2023/12/01 00:47:47;;;;;;;58.53;24.67;;;;;;;-0.69;100.00;100373.22;5029833;28;20033;-70
2023/12/01 00:50:13;;;;;;;43.25;19.27;;;;;;;-0.67;100.00;100373.91;5029989;28;20061;-70
2023/12/01 00:52:38;;;;;;;50.97;20.17;;;;;;;-0.68;100.00;100377.50;5029710;28;20033;-70
2023/12/01 00:55:04;;;;;;;43.33;18.52;;;;;;;-0.72;100.00;100374.31;5029843;28;20033;-70
2023/12/01 00:57:29;;;;;;;45.88;19.75;;;;;;;-0.72;100.00;100379.56;5028598;28;20033;-70
2023/12/01 00:59:55;;;;;;;42.90;17.63;;;;;;;-0.75;100.00;100387.69;5029808;28;20432;-70
2023/12/01 01:02:20;;;;;;;38.42;17.20;;;;;;;-0.77;100.00;100394.03;5029949;28;20037;-70
2023/12/01 01:04:45;;;;;;;40.05;15.05;;;;;;;-0.85;100.00;100393.88;5029784;28;20033;-70
2023/12/01 01:07:11;;;;;;;38.13;18.42;;;;;;;-0.93;100.00;100402.38;5029584;28;20048;-70
2023/12/01 01:09:36;;;;;;;37.53;16.50;;;;;;;-0.98;100.00;100397.53;5029643;28;20025;-70
2023/12/01 01:12:02;;;;;;;44.92;17.88;;;;;;;-1.02;100.00;100390.94;5029517;28;20033;-70
2023/12/01 01:14:28;;;;;;;46.60;19.27;;;;;;;-1.03;100.00;100394.50;5028248;28;20030;-70
2023/12/01 01:16:53;;;;;;;43.25;20.13;;;;;;;-1.02;100.00;100404.03;5029499;28;20045;-70
2023/12/01 01:19:18;;;;;;;49.08;22.05;;;;;;;-1.01;100.00;100403.06;5029391;28;20064;-70
2023/12/01 01:21:44;;;;;;;43.35;20.58;;;;;;;-1.05;100.00;100393.78;5029285;28;20057;-70
2023/12/01 01:24:09;;;;;;;44.40;17.98;;;;;;;-1.04;100.00;100398.09;5028966;28;20034;-70
2023/12/01 01:26:34;;;;;;;39.08;18.92;;;;;;;-1.01;100.00;100402.22;5029557;28;20033;-70
2023/12/01 01:29:00;;;;;;;42.17;20.27;;;;;;;-1.02;100.00;100397.94;5030397;28;20061;-70
2023/12/01 01:31:25;;;;;;;44.15;18.73;;;;;;;-1.04;100.00;100411.16;5030066;28;20480;-70
2023/12/01 01:33:51;;;;;;;47.80;18.73;;;;;;;-1.03;100.00;100409.38;5027652;28;20444;-70
2023/12/01 01:36:18;;;;;;;47.72;20.45;;;;;;;-1.05;100.00;100398.22;5029167;28;20033;-70
2023/12/01 01:38:43;;;;;;;41.63;17.13;;;;;;;-1.02;100.00;100404.03;5029249;28;20091;-70
2023/12/01 01:41:09;;;;;;;48.70;20.48;;;;;;;-1.00;100.00;100411.72;5029175;28;20057;-70
2023/12/01 01:43:34;;;;;;;46.03;19.23;;;;;;;-1.01;100.00;100408.28;5029201;28;20038;-70
2023/12/01 01:46:06;;;;;;;45.95;19.85;;;;;;;-0.99;100.00;100406.38;5027909;28;20081;-70
2023/12/01 01:48:34;;;;;;;39.40;18.23;;;;;;;-1.00;100.00;100404.69;5029050;28;20107;-70
2023/12/01 01:51:00;;;;;;;49.83;19.65;;;;;;;-0.97;100.00;100406.22;5028928;28;20033;-70
2023/12/01 01:53:27;;;;;;;44.40;18.33;;;;;;;-1.00;100.00;100409.94;5027587;28;20025;-70
2023/12/01 01:55:54;;;;;;;56.47;25.63;;;;;;;-1.01;100.00;100418.75;5029266;28;20075;-70
2023/12/01 01:58:19;;;;;;;42.03;16.33;;;;;;;-1.00;100.00;100428.25;5029041;28;20162;-70
2023/12/01 02:00:49;;;;;;;51.58;23.55;;;;;;;-0.99;100.00;100418.63;5029045;28;20033;-70
2023/12/01 02:03:16;;;;;;;45.58;21.30;;;;;;;-1.04;100.00;100423.44;5028751;28;20075;-70
2023/12/01 02:05:41;;;;;;;48.38;18.23;;;;;;;-1.00;100.00;100424.81;5028874;28;20048;-70
2023/12/01 02:08:24;;;;;;;49.50;20.98;;;;;;;-0.99;100.00;100424.69;5028938;28;20100;-70
2023/12/01 02:10:50;;;;;;;42.35;20.70;;;;;;;-0.99;100.00;100423.88;5028946;28;20113;-70
2023/12/01 02:13:16;;;;;;;48.03;21.65;;;;;;;-0.98;100.00;100423.72;5028887;28;20109;-70
2023/12/01 02:15:42;;;;;;;43.40;18.88;;;;;;;-0.98;100.00;100428.94;5028758;28;20037;-70
2023/12/01 02:18:25;;;;;;;53.95;21.98;;;;;;;-0.95;100.00;100433.09;5027622;28;20037;-70
2023/12/01 02:20:52;;;;;;;51.10;25.35;;;;;;;-0.97;100.00;100435.00;5028907;28;20133;-70
2023/12/01 02:23:18;;;;;;;47.13;20.70;;;;;;;-0.96;100.00;100434.88;5028767;28;20025;-70
2023/12/01 02:25:43;;;;;;;48.78;22.35;;;;;;;-0.96;100.00;100436.69;5027455;28;20034;-70
2023/12/01 02:28:09;;;;;;;46.03;21.88;;;;;;;-1.05;100.00;100432.22;5028841;28;20044;-70
2023/12/01 02:30:34;;;;;;;50.95;21.77;;;;;;;-1.04;100.00;100439.97;5028801;28;20379;-70
2023/12/01 02:33:00;;;;;;;56.90;23.83;;;;;;;-1.06;100.00;100436.63;5027459;28;20080;-70
2023/12/01 02:35:29;;;;;;;50.17;23.02;;;;;;;-1.08;100.00;100441.16;5027499;28;20099;-70
2023/12/01 02:37:59;;;;;;;47.05;21.27;;;;;;;-1.12;100.00;100434.56;5032113;28;20029;-70
2023/12/01 02:40:27;;;;;;;53.50;22.45;;;;;;;-1.14;100.00;100437.28;5032431;28;20033;-70
2023/12/01 02:42:53;;;;;;;45.90;18.55;;;;;;;-1.15;100.00;100447.91;5032329;28;20075;-71
2023/12/01 02:45:20;;;;;;;56.45;21.17;;;;;;;-1.23;100.00;100435.47;5032340;28;20035;-71
2023/12/01 02:47:47;;;;;;;55.63;22.30;;;;;;;-1.17;100.00;100441.97;5032287;28;20033;-71
2023/12/01 02:50:17;;;;;;;41.38;18.08;;;;;;;-1.17;100.00;100439.34;5030595;28;20048;-70
2023/12/01 02:52:43;;;;;;;48.03;21.15;;;;;;;-1.21;100.00;100430.09;5032260;28;20034;-70
2023/12/01 02:55:09;;;;;;;51.33;20.05;;;;;;;-1.22;100.00;100439.75;5031937;28;20365;-70
2023/12/01 02:57:41;;;;;;;49.00;19.88;;;;;;;-1.24;100.00;100438.22;5031991;28;20029;-70
2023/12/01 03:00:14;;;;;;;58.10;22.45;;;;;;;-1.27;100.00;100441.09;5014337;28;20037;-70
2023/12/01 03:02:43;;;;;;;59.40;23.20;;;;;;;-1.30;100.00;100443.97;5032026;28;20030;-70
2023/12/01 03:05:09;;;;;;;54.17;22.27;;;;;;;-1.35;100.00;100447.78;5031897;28;20036;-70
2023/12/01 03:07:39;;;;;;;54.53;20.48;;;;;;;-1.43;100.00;100441.56;5031875;28;20033;-70
2023/12/01 03:10:09;;;;;;;59.42;23.40;;;;;;;-1.39;100.00;100443.81;5031637;28;20049;-70
2023/12/01 03:12:35;;;;;;;55.20;22.92;;;;;;;-1.42;100.00;100446.66;5031740;28;20469;-70
2023/12/01 03:15:00;;;;;;;44.88;16.90;;;;;;;-1.42;100.00;100444.03;5031814;28;20043;-70
2023/12/01 03:17:26;;;;;;;52.75;21.88;;;;;;;-1.44;100.00;100439.88;5031681;28;20028;-70
2023/12/01 03:19:52;;;;;;;63.88;19.08;;;;;;;-1.46;100.00;100434.81;5031685;28;20091;-70
2023/12/01 03:22:18;;;;;;;48.17;19.75;;;;;;;-1.47;100.00;100440.97;5031563;28;20056;-70
2023/12/01 03:24:47;;;;;;;56.13;21.88;;;;;;;-1.44;100.00;100445.13;5030271;28;20504;-70
2023/12/01 03:27:16;;;;;;;54.08;20.77;;;;;;;-1.46;100.00;100449.69;5031257;28;20488;-70
2023/12/01 03:29:42;;;;;;;44.97;18.52;;;;;;;-1.50;100.00;100449.09;5031353;28;20396;-70
2023/12/01 03:32:07;;;;;;;52.58;17.65;;;;;;;-1.53;100.00;100446.72;5031444;28;20036;-70
2023/12/01 03:34:33;;;;;;;57.22;21.63;;;;;;;-1.52;100.00;100447.56;5031141;28;20072;-70
2023/12/01 03:36:58;;;;;;;57.08;24.90;;;;;;;-1.56;100.00;100444.38;5030089;28;20112;-70
2023/12/01 03:39:25;;;;;;;45.28;19.58;;;;;;;-1.58;100.00;100449.72;5031289;28;20025;-71
2023/12/01 03:41:51;;;;;;;51.90;19.60;;;;;;;-1.58;100.00;100454.13;5031185;28;20052;-70
2023/12/01 03:44:16;;;;;;;47.03;19.38;;;;;;;-1.59;100.00;100453.31;5029873;28;20041;-70
2023/12/01 03:46:42;;;;;;;55.55;20.77;;;;;;;-1.56;100.00;100453.03;5030687;28;20068;-70
2023/12/01 03:49:07;;;;;;;45.70;16.38;;;;;;;-1.55;100.00;100459.09;5031087;28;20107;-70
2023/12/01 03:51:34;;;;;;;40.95;17.65;;;;;;;-1.54;100.00;100463.38;5031016;28;20028;-70
2023/12/01 03:53:59;;;;;;;56.28;21.90;;;;;;;-1.60;100.00;100453.41;5030791;28;20116;-70
2023/12/01 03:56:25;;;;;;;46.65;17.83;;;;;;;-1.53;100.00;100467.66;5030971;28;20183;-70
2023/12/01 03:58:54;;;;;;;46.38;20.73;;;;;;;-1.59;100.00;100457.72;5030995;28;20044;-70
2023/12/01 04:01:20;;;;;;;51.78;20.60;;;;;;;-1.56;100.00;100460.06;5030860;28;20029;-70
2023/12/01 04:03:45;;;;;;;57.58;21.98;;;;;;;-1.58;100.00;100459.34;5030788;28;20052;-70
2023/12/01 04:06:10;;;;;;;56.53;19.98;;;;;;;-1.68;100.00;100445.38;5030812;28;20033;-70
2023/12/01 04:08:36;;;;;;;47.47;17.90;;;;;;;-1.58;100.00;100464.59;5030672;28;20035;-70
2023/12/01 04:11:01;;;;;;;43.78;16.30;;;;;;;-1.57;100.00;100469.69;5030723;28;20033;-70
2023/12/01 04:13:27;;;;;;;57.67;21.70;;;;;;;-1.57;100.00;100463.66;5030754;28;20457;-70
2023/12/01 04:15:52;;;;;;;50.80;25.45;;;;;;;-1.61;100.00;100464.84;5030651;28;20079;-70
2023/12/01 04:18:18;;;;;;;55.40;19.70;;;;;;;-1.55;100.00;100469.56;5030436;28;20499;-70
2023/12/01 04:20:43;;;;;;;59.10;23.92;;;;;;;-1.55;100.00;100470.41;5030407;28;20551;-70
2023/12/01 04:23:10;;;;;;;60.58;23.95;;;;;;;-1.51;100.00;100476.19;5030475;28;20030;-70
2023/12/01 04:25:37;;;;;;;63.67;26.00;;;;;;;-1.52;100.00;100460.63;5030392;28;20419;-71
2023/12/01 04:28:03;;;;;;;58.58;24.45;;;;;;;-1.49;100.00;100470.81;5029169;28;20473;-70
2023/12/01 04:30:29;;;;;;;59.15;24.02;;;;;;;-1.41;100.00;100476.28;5030208;28;20546;-70
2023/12/01 04:32:55;;;;;;;62.78;25.50;;;;;;;-1.43;100.00;100472.94;5030208;28;20034;-70
2023/12/01 04:35:25;;;;;;;48.92;22.02;;;;;;;-1.41;100.00;100482.31;5030138;28;20386;-70
2023/12/01 04:37:51;;;;;;;60.28;22.52;;;;;;;-1.35;100.00;100488.81;5030198;28;20083;-70
2023/12/01 04:40:17;;;;;;;56.60;24.20;;;;;;;-1.34;100.00;100493.09;5028766;28;20428;-70
2023/12/01 04:42:53;;;;;;;57.75;24.92;;;;;;;-1.33;100.00;100495.59;5029555;28;20444;-70
2023/12/01 04:45:20;;;;;;;51.28;21.20;;;;;;;-1.34;100.00;100493.09;5029901;28;20025;-70
2023/12/01 04:47:50;;;;;;;59.53;22.02;;;;;;;-1.32;100.00;100497.22;5029874;28;20120;-70
2023/12/01 04:50:16;;;;;;;50.30;21.05;;;;;;;-1.34;100.00;100498.31;5029944;28;20025;-70
2023/12/01 04:52:46;;;;;;;54.05;19.25;;;;;;;-1.34;100.00;100521.84;5029954;28;20048;-70
2023/12/01 04:55:13;;;;;;;48.55;19.17;;;;;;;-1.37;100.00;100515.09;5029715;28;20448;-70
2023/12/01 04:57:39;;;;;;;45.00;16.83;;;;;;;-1.36;100.00;100516.78;5029821;28;20033;-70
2023/12/01 05:00:22;;;;;;;44.95;20.45;;;;;;;-1.36;100.00;100503.69;5029000;28;20036;-70
2023/12/01 05:02:59;;;;;;;44.63;20.88;;;;;;;-1.34;100.00;100514.88;5029669;28;20025;-70
2023/12/01 05:05:26;;;;;;;40.30;18.65;;;;;;;-1.33;100.00;100516.50;5029553;28;20358;-70
2023/12/01 05:07:57;;;;;;;55.25;24.83;;;;;;;-1.29;100.00;100518.88;5029740;28;20083;-70
2023/12/01 05:10:24;;;;;;;39.22;17.40;;;;;;;-1.35;100.00;100513.19;5029720;28;20029;-70
2023/12/01 05:12:54;;;;;;;38.38;19.35;;;;;;;-1.27;100.00;100528.25;5029611;28;20104;-70
2023/12/01 05:15:24;;;;;;;47.10;19.63;;;;;;;-1.24;100.00;100529.78;5029646;28;20116;-70
2023/12/01 05:17:52;;;;;;;42.45;20.50;;;;;;;-1.32;100.00;100518.16;5029501;28;20144;-70
2023/12/01 05:20:19;;;;;;;39.65;17.83;;;;;;;-1.22;100.00;100527.88;5029417;28;20147;-71
2023/12/01 05:22:57;;;;;;;53.72;23.17;;;;;;;-1.18;100.00;100547.56;5029274;28;20021;-70
2023/12/01 05:25:25;;;;;;;42.53;17.30;;;;;;;-1.18;100.00;100545.81;5029507;28;20044;-70
2023/12/01 05:27:56;;;;;;;45.97;20.13;;;;;;;-1.17;100.00;100544.00;5029351;28;20025;-70
2023/12/01 05:30:23;;;;;;;39.92;17.75;;;;;;;-1.22;100.00;100538.34;5029284;28;20373;-70
2023/12/01 05:32:51;;;;;;;36.33;18.90;;;;;;;-1.16;100.00;100553.50;5029152;28;20025;-70
2023/12/01 05:35:18;;;;;;;44.63;18.25;;;;;;;-1.17;100.00;100547.44;5029167;28;20057;-70
2023/12/01 05:37:50;;;;;;;37.17;15.38;;;;;;;-1.21;100.00;100548.66;5027975;28;20037;-70
2023/12/01 05:40:28;;;;;;;42.22;18.27;;;;;;;-1.19;100.00;100548.53;5029190;28;20043;-70
2023/12/01 05:42:55;;;;;;;42.80;18.13;;;;;;;-1.21;100.00;100540.81;5029317;28;20025;-70
2023/12/01 05:45:26;;;;;;;49.33;19.33;;;;;;;-1.17;100.00;100552.69;5029242;28;20039;-70
2023/12/01 05:47:52;;;;;;;39.63;17.13;;;;;;;-1.16;100.00;100563.97;5027720;28;20017;-70
2023/12/01 05:50:21;;;;;;;42.80;18.23;;;;;;;-1.16;100.00;100566.59;5027564;28;20022;-70
2023/12/01 05:52:48;;;;;;;39.88;19.10;;;;;;;-1.18;100.00;100560.66;5028936;28;20097;-70
2023/12/01 05:55:16;;;;;;;42.47;19.38;;;;;;;-1.17;100.00;100571.00;5028792;28;20026;-70
2023/12/01 05:57:45;;;;;;;37.95;16.38;;;;;;;-1.13;100.00;100569.81;5029173;28;20056;-70
2023/12/01 06:00:31;;;;;;;43.70;18.90;;;;;;;-1.11;100.00;100574.91;5029005;28;20484;-70
2023/12/01 06:03:08;;;;;;;49.17;19.77;;;;;;;-1.09;100.00;100567.75;5028621;28;20103;-70
2023/12/01 06:05:36;;;;;;;39.95;15.85;;;;;;;-1.08;100.00;100565.97;5028891;28;20083;-70
2023/12/01 06:08:02;;;;;;;43.47;18.83;;;;;;;-1.06;100.00;100570.09;5029009;28;20057;-70
2023/12/01 06:10:31;;;;;;;41.67;17.75;;;;;;;-1.04;100.00;100565.56;5030199;28;20396;-70
2023/12/01 06:12:57;;;;;;;42.30;18.30;;;;;;;-1.04;100.00;100562.97;5032468;28;20021;-70
2023/12/01 06:15:26;;;;;;;47.13;20.75;;;;;;;-1.03;100.00;100564.59;5032794;28;20049;-70
2023/12/01 06:17:51;;;;;;;44.70;18.33;;;;;;;-0.99;100.00;100559.97;5032627;28;20065;-70
2023/12/01 06:20:20;;;;;;;42.92;22.55;;;;;;;-1.04;100.00;100552.50;5031314;28;20448;-70
2023/12/01 06:22:52;;;;;;;43.53;18.88;;;;;;;-0.94;100.00;100563.03;5032648;28;20056;-70
2023/12/01 06:25:20;;;;;;;41.08;16.73;;;;;;;-0.91;100.00;100574.06;5032647;28;20033;-70
2023/12/01 06:27:46;;;;;;;46.25;19.95;;;;;;;-0.89;100.00;100566.91;5032604;28;20029;-70
2023/12/01 06:30:13;;;;;;;46.33;21.65;;;;;;;-0.96;100.00;100562.31;5032501;28;20095;-70
2023/12/01 06:32:43;;;;;;;43.17;16.58;;;;;;;-0.85;100.00;100580.56;5032545;28;20088;-70
2023/12/01 06:35:11;;;;;;;40.80;17.25;;;;;;;-0.82;100.00;100576.84;5032138;28;20111;-70
2023/12/01 06:37:36;;;;;;;38.33;16.48;;;;;;;-0.84;100.00;100576.97;5032399;28;20128;-70
2023/12/01 06:40:11;;;;;;;42.78;17.60;;;;;;;-0.83;100.00;100576.03;5032375;28;20440;-71
2023/12/01 06:42:42;;;;;;;37.65;16.08;;;;;;;-0.83;100.00;100580.44;5032202;28;20465;-71
2023/12/01 06:45:11;;;;;;;;;;;;;;;-0.80;100.00;100574.94;5032746;28;20960;-71
2023/12/01 06:47:38;;;;;;;38.90;16.42;;;;;;;-0.81;100.00;100578.50;5032214;28;20360;-71
2023/12/01 06:50:05;;;;;;;36.17;17.80;;;;;;;-0.80;100.00;100569.69;5032070;28;20122;-71
2023/12/01 06:52:30;;;;;;;41.88;18.27;;;;;;;-0.78;100.00;100573.03;5032249;28;20028;-71
2023/12/01 06:54:55;;;;;;;43.08;18.08;;;;;;;-0.75;100.00;100578.00;5031806;28;20037;-71
2023/12/01 06:57:21;;;;;;;36.03;16.75;;;;;;;-0.75;100.00;100580.63;5032139;28;20856;-71
2023/12/01 06:59:46;;;;;;;39.13;16.63;;;;;;;-0.74;100.00;100593.56;5031996;28;20856;-70
2023/12/01 07:02:17;;;;;;;47.35;19.13;;;;;;;-0.73;100.00;100581.31;5031943;28;20116;-70
2023/12/01 07:04:45;;;;;;;41.17;16.70;;;;;;;-0.72;100.00;100588.22;5030649;28;20037;-70
2023/12/01 07:07:12;;;;;;;42.03;17.55;;;;;;;-0.73;100.00;100592.63;5031965;28;20684;-70
2023/12/01 07:09:43;;;;;;;43.28;16.98;;;;;;;-0.70;100.00;100600.22;5031750;28;20057;-70
2023/12/01 07:12:09;;;;;;;38.72;16.98;;;;;;;-0.67;100.00;100599.13;5031728;28;20194;-70
2023/12/01 07:14:36;;;;;;;40.28;17.33;;;;;;;-0.67;100.00;100609.59;5031835;28;20469;-70
2023/12/01 07:17:02;;;;;;;41.40;19.85;;;;;;;-0.70;100.00;100607.25;5031736;28;20107;-70
2023/12/01 07:19:28;;;;;;;42.10;17.15;;;;;;;-0.71;100.00;100606.41;5031810;28;20053;-70
2023/12/01 07:21:53;;;;;;;41.70;16.85;;;;;;;-0.68;100.00;100607.94;5030762;28;20034;-70
2023/12/01 07:24:20;;;;;;;36.30;16.45;;;;;;;-0.66;100.00;100619.09;5031534;28;20034;-70
2023/12/01 07:26:51;;;;;;;31.85;14.45;;;;;;;-0.67;100.00;100615.66;5031650;28;20037;-70
2023/12/01 07:29:18;;;;;;;41.83;17.40;;;;;;;-0.65;100.00;100618.16;5031396;28;20025;-70
2023/12/01 07:31:44;;;;;;;45.83;15.32;;;;;;;-0.62;100.00;100617.06;5031280;28;20056;-70
2023/12/01 07:34:11;;;;;;;40.53;17.00;;;;;;;-0.64;100.00;100613.75;5031190;28;20029;-72
2023/12/01 07:36:37;;;;;;;35.45;14.98;;;;;;;-0.61;100.00;100618.72;5030724;28;20443;-73
2023/12/01 07:39:02;;;;;;;36.53;16.42;;;;;;;-0.72;100.00;100607.38;5030482;28;20908;-73
2023/12/01 07:41:28;;;;;;;38.63;18.30;;;;;;;-0.61;100.00;100616.94;5030130;28;20030;-72
2023/12/01 07:43:55;;;;;;;37.15;15.55;;;;;;;-0.64;100.00;100606.72;5030228;28;20388;-72
2023/12/01 07:46:20;;;;;;;38.28;15.13;;;;;;;-0.63;100.00;100618.84;5029181;28;20038;-71
2023/12/01 07:48:46;;;;;;;33.55;14.20;;;;;;;-0.76;100.00;100589.41;5030359;28;20036;-72
2023/12/01 07:51:11;;;;;;;34.78;14.68;;;;;;;-0.59;100.00;100625.50;5030499;28;20397;-72
2023/12/01 07:53:37;;;;;;;32.00;13.27;;;;;;;-0.59;100.00;100619.44;5030630;28;20480;-72
2023/12/01 07:56:03;;;;;;;26.52;12.90;;;;;;;-0.60;100.00;100615.13;5030715;28;20215;-72
2023/12/01 07:58:28;;;;;;;34.05;14.75;;;;;;;-0.60;100.00;100613.38;5012680;28;20044;-72
2023/12/01 08:00:55;;;;;;;35.63;15.98;;;;;;;-0.58;100.00;100616.66;5029430;28;20033;-71
2023/12/01 08:03:21;;;;;;;29.95;12.77;;;;;;;-0.74;100.00;100583.09;5030336;28;20136;-71
2023/12/01 08:05:46;;;;;;;29.73;13.73;;;;;;;-0.51;100.00;100616.97;5030533;28;20112;-71
2023/12/01 08:08:14;;;;;;;31.55;13.93;;;;;;;-0.74;100.00;100585.72;5030341;28;20648;-71
2023/12/01 08:10:39;;;;;;;26.45;12.07;;;;;;;-0.68;100.00;100590.44;5029530;28;21034;-71
2023/12/01 08:13:05;;;;;;;30.15;12.65;;;;;;;-0.49;100.00;100620.31;5030142;28;20025;-71
2023/12/01 08:15:31;;;;;;;25.80;12.07;;;;;;;-0.49;100.00;100617.69;5030585;28;20033;-71
2023/12/01 08:17:58;;;;;;;30.52;11.55;;;;;;;-0.62;100.00;100599.56;5030159;28;20108;-71
2023/12/01 08:20:23;;;;;;;31.40;13.68;;;;;;;-0.69;100.00;100595.81;5029532;28;20043;-71
2023/12/01 08:22:48;;;;;;;29.10;10.95;;;;;;;-0.52;100.00;100620.56;5028003;28;20411;-72
2023/12/01 08:25:14;;;;;;;24.73;9.73;;;;;;;-0.48;100.00;100635.06;5027453;28;20118;-73
2023/12/01 08:27:40;;;;;;;28.08;12.80;;;;;;;-0.46;100.00;100633.97;5029943;28;20025;-70
2023/12/01 08:30:07;;;;;;;31.30;10.05;;;;;;;-0.53;100.00;100627.56;5030301;28;20028;-72
2023/12/01 08:32:32;;;;;;;28.48;10.88;;;;;;;-0.44;100.00;100639.09;5030259;28;20472;-73
2023/12/01 08:34:58;;;;;;;26.40;9.77;;;;;;;-0.48;100.00;100632.44;5028035;28;20068;-72
2023/12/01 08:37:23;;;;;;;31.98;12.05;;;;;;;-0.40;100.00;100652.75;5029274;28;20035;-68
2023/12/01 08:39:49;;;;;;;23.40;10.93;;;;;;;-0.40;100.00;100655.34;5026972;28;20096;-69
2023/12/01 08:42:14;;;;;;;26.83;9.68;;;;;;;-0.40;100.00;100650.94;5027225;28;20042;-69
2023/12/01 08:44:40;;;;;;;24.08;10.73;;;;;;;-0.39;100.00;100657.88;5027822;28;20037;-69
2023/12/01 08:47:05;;;;;;;24.08;9.73;;;;;;;-0.42;100.00;100671.19;5027733;28;20044;-70
2023/12/01 08:49:31;;;;;;;22.95;10.50;;;;;;;-0.40;100.00;100665.84;5027711;28;20033;-70
2023/12/01 08:51:56;;;;;;;27.90;11.63;;;;;;;-0.42;100.00;100673.00;5027974;28;20108;-70
2023/12/01 08:54:22;;;;;;;26.65;10.75;;;;;;;-0.45;100.00;100660.97;5027545;28;20044;-71
2023/12/01 08:56:48;;;;;;;29.25;11.18;;;;;;;-0.40;100.00;100669.28;5027811;28;20037;-72
2023/12/01 08:59:13;;;;;;;25.27;11.65;;;;;;;-0.36;100.00;100669.88;5027529;28;20436;-70
2023/12/01 09:01:40;;;;;;;27.25;12.00;;;;;;;-0.35;100.00;100671.53;5027664;28;20037;-70
2023/12/01 09:04:06;;;;;;;24.70;10.25;;;;;;;-0.36;100.00;100675.13;5027329;28;20374;-71
2023/12/01 09:06:32;;;;;;;24.95;9.52;;;;;;;-0.36;100.00;100668.06;5027483;28;20032;-70
2023/12/01 09:08:57;;;;;;;26.00;10.00;;;;;;;-0.33;100.00;100677.47;5027641;28;20033;-73
2023/12/01 09:11:22;;;;;;;26.48;11.50;;;;;;;-0.36;100.00;100678.56;5027690;28;20504;-74
2023/12/01 09:13:48;;;;;;;23.42;8.95;;;;;;;-0.34;100.00;100684.50;4992803;28;20033;-69
2023/12/01 09:16:13;;;;;;;25.52;10.75;;;;;;;-0.30;100.00;100682.44;5010132;28;20126;-72
2023/12/01 09:18:39;;;;;;;27.63;11.20;;;;;;;-0.31;100.00;100676.38;5027337;28;20035;-69
2023/12/01 09:21:04;;;;;;;24.23;12.23;;;;;;;-0.28;100.00;100681.34;5027660;28;20187;-71
2023/12/01 09:23:30;;;;;;;25.77;10.43;;;;;;;-0.24;100.00;100687.16;5027887;28;20496;-71
2023/12/01 09:25:55;;;;;;;29.30;9.43;;;;;;;-0.22;100.00;100690.47;5029318;28;20029;-71
2023/12/01 09:28:23;;;;;;;25.85;9.75;;;;;;;-0.23;100.00;100702.75;5029026;28;20037;-71
2023/12/01 09:30:48;;;;;;;27.92;11.00;;;;;;;-0.23;100.00;100708.00;5028689;28;20164;-71
2023/12/01 09:33:14;;;;;;;27.27;11.88;;;;;;;-0.27;100.00;100701.34;5028860;28;20060;-71
2023/12/01 09:35:39;;;;;;;27.17;10.32;;;;;;;-0.27;100.00;100708.38;5028454;28;20064;-71
2023/12/01 09:38:05;;;;;;;26.75;9.20;;;;;;;-0.29;100.00;100711.16;5029072;28;20037;-71
2023/12/01 09:40:35;;;;;;;27.58;11.25;;;;;;;-0.28;100.00;100707.56;5028618;28;20039;-72
2023/12/01 09:43:01;;;;;;;29.75;11.18;;;;;;;-0.30;100.00;100698.16;5028694;28;20495;-71
2023/12/01 09:45:26;;;;;;;26.90;10.35;;;;;;;-0.60;100.00;100663.13;5026886;28;20029;-71
2023/12/01 09:47:58;;;;;;;27.42;11.57;;;;;;;-0.33;100.00;100709.72;5029057;28;20115;-71
2023/12/01 09:50:24;;;;;;;;;;;;;;;-0.28;100.00;100723.28;5029030;28;20065;-71
2023/12/01 09:52:52;;;;;;;18.90;8.05;;;;;;;-0.33;100.00;100724.63;5028683;28;20010;-71
2023/12/01 09:55:17;;;;;;;25.35;11.18;;;;;;;-0.30;100.00;100724.38;5027303;28;20131;-71
2023/12/01 09:57:42;;;;;;;24.60;10.05;;;;;;;-0.28;100.00;100732.94;5028239;28;20500;-71
2023/12/01 10:00:11;;;;;;;25.45;10.57;;;;;;;-0.25;100.00;100727.44;5020552;28;20480;-71
2023/12/01 10:02:40;;;;;;;23.70;9.98;;;;;;;-0.23;100.00;100718.47;5028277;28;20040;-71
2023/12/01 10:05:11;;;;;;;25.90;11.50;;;;;;;-0.19;100.00;100721.66;5028483;28;20037;-68
2023/12/01 10:07:37;;;;;;;24.20;9.18;;;;;;;-0.17;100.00;100727.59;5027909;28;20040;-72
2023/12/01 10:10:19;;;;;;;22.90;9.40;;;;;;;-0.16;100.00;100733.69;5028757;28;20572;-72
2023/12/01 10:13:04;;;;;;;26.83;10.40;;;;;;;-0.19;100.00;100719.03;5028965;28;20026;-72
2023/12/01 10:15:30;;;;;;;26.50;10.85;;;;;;;-0.18;100.00;100718.09;5028706;28;20368;-72
2023/12/01 10:18:16;;;;;;;31.67;11.65;;;;;;;-0.18;100.00;100719.88;5028582;28;20044;-72
2023/12/01 10:21:02;;;;;;;27.25;9.80;;;;;;;-0.20;100.00;100722.63;5028658;28;20541;-72
2023/12/01 10:23:29;;;;;;;25.27;11.18;;;;;;;-0.26;100.00;100728.41;5028257;28;20076;-72
2023/12/01 10:25:54;;;;;;;24.10;11.18;;;;;;;-0.24;100.00;100723.84;5028881;28;20040;-73
2023/12/01 10:28:20;;;;;;;27.80;8.10;;;;;;;-0.26;100.00;100721.38;5028386;28;20030;-72
2023/12/01 10:30:54;;;;;;;24.52;8.80;;;;;;;-0.31;100.00;100707.00;5028436;28;20480;-72
2023/12/01 10:33:20;;;;;;;21.73;10.60;;;;;;;-0.21;100.00;100723.56;5027249;28;20021;-72
2023/12/01 10:36:06;;;;;;;24.90;11.63;;;;;;;-0.27;100.00;100716.25;5026760;28;20057;-72
2023/12/01 10:38:36;;;;;;;26.65;12.00;;;;;;;-0.20;100.00;100732.28;5026943;28;20053;-72
2023/12/01 10:41:03;;;;;;;20.63;8.32;;;;;;;-0.16;100.00;100725.81;5028151;28;20083;-72
2023/12/01 10:43:29;;;;;;;29.40;11.13;;;;;;;-0.19;100.00;100728.69;5027506;28;20029;-71
2023/12/01 10:46:01;;;;;;;21.02;9.30;;;;;;;-0.41;100.00;100706.94;5026327;28;20028;-68
2023/12/01 10:48:29;;;;;;;25.63;9.77;;;;;;;-0.29;100.00;100728.63;5025342;28;20030;-69
2023/12/01 10:50:54;;;;;;;27.35;9.88;;;;;;;-0.26;100.00;100720.53;5025882;28;20025;-72
2023/12/01 10:53:24;;;;;;;23.08;11.55;;;;;;;-0.22;100.00;100722.75;5025752;28;20127;-73
2023/12/01 10:55:50;;;;;;;26.60;11.00;;;;;;;-0.25;100.00;100714.31;5025666;28;20034;-70
2023/12/01 10:58:25;;;;;;;24.15;11.43;;;;;;;-0.26;100.00;100717.91;5028233;28;20025;-72
2023/12/01 11:00:57;;;;;;;21.60;8.13;;;;;;;-0.19;100.00;100726.06;5030273;28;20433;-70
2023/12/01 11:03:26;;;;;;;25.85;10.00;;;;;;;-0.21;100.00;100720.94;5028750;28;20567;-69